createdAt,value
2018-12-25T00:04:40.077Z,7.87
2018-12-25T00:09:35.852Z,9.33
2018-12-25T00:14:31.703Z,8.37
2018-12-25T00:19:27.755Z,8.43
2018-12-25T00:24:24.020Z,8.23
2018-12-25T00:29:19.867Z,8.40
2018-12-25T00:34:15.713Z,8.63
2018-12-25T00:39:11.639Z,8.50
2018-12-25T00:44:07.450Z,7.43
2018-12-25T00:49:03.288Z,8.33
2018-12-25T00:53:59.123Z,7.60
2018-12-25T00:58:54.966Z,9.40
2018-12-25T01:03:50.763Z,9.20
2018-12-25T01:08:46.610Z,7.93
2018-12-25T01:13:42.411Z,8.07
2018-12-25T01:18:38.251Z,10.33
2018-12-25T01:23:34.099Z,8.70
2018-12-25T01:28:30.123Z,8.43
2018-12-25T01:33:26.111Z,9.93
2018-12-25T01:38:21.972Z,9.57
2018-12-25T01:43:17.903Z,10.10
2018-12-25T01:48:13.742Z,10.20
2018-12-25T01:53:09.554Z,9.77
2018-12-25T01:58:05.379Z,9.77
2018-12-25T02:03:01.190Z,9.33
2018-12-25T02:07:57.015Z,9.03
2018-12-25T02:12:52.831Z,9.73
2018-12-25T02:17:48.655Z,9.70
2018-12-25T02:22:44.529Z,10.33
2018-12-25T02:27:40.439Z,10.30
2018-12-25T02:32:36.275Z,10.10
2018-12-25T02:37:32.120Z,10.17
2018-12-25T02:42:27.935Z,10.10
2018-12-25T02:47:23.759Z,11.93
2018-12-25T02:52:19.580Z,10.53
2018-12-25T02:57:15.416Z,10.53
2018-12-25T03:02:11.302Z,12.60
2018-12-25T03:07:07.447Z,11.57
2018-12-25T03:12:03.305Z,10.50
2018-12-25T03:16:59.206Z,9.93
2018-12-25T03:21:55.059Z,10.80
2018-12-25T03:26:50.993Z,10.57
2018-12-25T03:31:46.830Z,12.03
2018-12-25T03:36:42.653Z,10.00
2018-12-25T03:41:38.570Z,11.33
2018-12-25T03:46:34.413Z,12.03
2018-12-25T03:51:30.328Z,10.60
2018-12-25T03:56:26.566Z,10.90
2018-12-25T04:01:22.518Z,9.03
2018-12-25T04:06:18.561Z,10.80
2018-12-25T04:11:14.456Z,9.87
2018-12-25T04:16:10.299Z,10.50
2018-12-25T04:21:06.155Z,10.27
2018-12-25T04:26:01.979Z,12.33
2018-12-25T04:30:57.877Z,11.93
2018-12-25T04:35:54.047Z,10.60
2018-12-25T04:40:50.281Z,10.00
2018-12-25T04:45:46.113Z,11.07
2018-12-25T04:50:41.934Z,10.40
2018-12-25T04:55:37.759Z,9.50
2018-12-25T05:00:33.569Z,9.73
2018-12-25T05:05:29.405Z,10.83
2018-12-25T05:10:25.260Z,9.67
2018-12-25T05:15:21.157Z,10.00
2018-12-25T05:20:16.953Z,10.83
2018-12-25T05:25:12.831Z,9.90
2018-12-25T05:30:08.746Z,9.93
2018-12-25T05:35:04.597Z,13.63
2018-12-25T05:40:00.694Z,13.17
2018-12-25T05:44:56.520Z,12.47
2018-12-25T05:49:52.426Z,9.30
2018-12-25T05:54:48.355Z,10.30
2018-12-25T05:59:44.187Z,9.50
2018-12-25T06:04:40.065Z,9.60
2018-12-25T06:09:35.891Z,10.80
2018-12-25T06:14:31.736Z,11.93
2018-12-25T06:19:27.649Z,12.47
2018-12-25T06:24:23.508Z,11.30
2018-12-25T06:29:19.331Z,14.27
2018-12-25T06:34:15.263Z,11.20
2018-12-25T06:39:11.397Z,12.70
2018-12-25T06:44:07.219Z,11.43
2018-12-25T06:49:03.029Z,12.50
2018-12-25T06:53:58.882Z,14.03
2018-12-25T06:58:54.711Z,11.90
2018-12-25T07:03:50.534Z,13.23
2018-12-25T07:08:46.388Z,11.03
2018-12-25T07:13:42.278Z,12.33
2018-12-25T07:18:38.141Z,10.90
2018-12-25T07:23:34.054Z,11.60
2018-12-25T07:28:29.911Z,13.73
2018-12-25T07:33:26.137Z,12.43
2018-12-25T07:38:22.038Z,10.73
2018-12-25T07:43:17.868Z,12.90
2018-12-25T07:48:13.749Z,10.20
2018-12-25T07:53:09.654Z,13.20
2018-12-25T07:58:05.486Z,12.83
2018-12-25T08:03:01.481Z,11.50
2018-12-25T08:07:57.312Z,13.53
2018-12-25T08:12:53.183Z,14.00
2018-12-25T08:17:49.071Z,13.57
2018-12-25T08:22:45.011Z,11.60
2018-12-25T08:27:40.835Z,12.50
2018-12-25T08:32:36.665Z,10.67
2018-12-25T08:37:32.520Z,12.23
2018-12-25T08:42:28.307Z,11.23
2018-12-25T08:47:24.127Z,8.07
2018-12-25T08:52:19.971Z,8.17
2018-12-25T08:57:15.754Z,8.90
2018-12-25T09:02:11.896Z,8.40
2018-12-25T09:07:07.728Z,8.43
2018-12-25T09:12:03.572Z,9.77
2018-12-25T09:16:59.371Z,7.77
2018-12-25T09:21:55.241Z,8.70
2018-12-25T09:26:51.079Z,11.57
2018-12-25T09:31:47.318Z,8.13
2018-12-25T09:36:43.223Z,6.87
2018-12-25T09:41:39.073Z,8.60
2018-12-25T09:46:34.900Z,8.53
2018-12-25T09:51:30.742Z,7.00
2018-12-25T09:56:26.875Z,12.97
2018-12-25T10:01:23.053Z,6.20
2018-12-25T10:06:18.899Z,6.67
2018-12-25T10:11:14.715Z,7.23
2018-12-25T10:16:10.563Z,9.60
2018-12-25T10:21:06.469Z,8.27
2018-12-25T10:26:02.323Z,7.50
2018-12-25T10:30:58.279Z,6.00
2018-12-25T10:35:54.071Z,7.47
2018-12-25T10:40:49.929Z,6.73
2018-12-25T10:45:45.856Z,5.53
2018-12-25T10:50:41.891Z,6.17
2018-12-25T10:55:37.938Z,6.40
2018-12-25T11:00:35.619Z,7.60
2018-12-25T11:05:31.786Z,7.20
2018-12-25T11:10:27.751Z,6.00
2018-12-25T11:15:23.582Z,7.97
2018-12-25T11:20:19.393Z,5.33
2018-12-25T11:25:15.233Z,8.70
2018-12-25T11:30:11.289Z,7.10
2018-12-25T11:35:07.112Z,7.17
2018-12-25T11:40:03.444Z,7.50
2018-12-25T11:44:59.597Z,6.80
2018-12-25T11:49:55.657Z,8.07
2018-12-25T11:54:51.576Z,6.37
2018-12-25T11:59:47.508Z,5.40
2018-12-25T12:04:43.357Z,5.80
2018-12-25T12:09:39.173Z,5.70
2018-12-25T12:14:35.015Z,8.20
2018-12-25T12:19:30.855Z,6.90
2018-12-25T12:24:27.126Z,5.90
2018-12-25T12:30:05.605Z,4.77
2018-12-25T12:35:01.290Z,5.10
2018-12-25T12:39:56.994Z,4.80
2018-12-25T12:44:52.733Z,5.60
2018-12-25T12:49:48.422Z,5.50
2018-12-25T12:54:44.126Z,5.77
2018-12-25T12:59:39.847Z,8.80
2018-12-25T13:04:35.561Z,9.83
2018-12-25T13:09:31.258Z,8.60
2018-12-25T13:14:26.982Z,6.40
2018-12-25T13:19:22.702Z,11.87
2018-12-25T13:24:18.717Z,8.17
2018-12-25T13:29:14.456Z,6.53
2018-12-25T13:34:10.208Z,5.80
2018-12-25T13:39:05.965Z,5.80
2018-12-25T13:44:01.759Z,9.67
2018-12-25T13:48:57.473Z,6.83
2018-12-25T13:53:53.205Z,7.10
2018-12-25T13:58:48.903Z,6.60
2018-12-25T14:03:44.733Z,7.03
2018-12-25T14:08:40.417Z,8.17
2018-12-25T14:13:36.253Z,6.37
2018-12-25T14:18:31.998Z,5.37
2018-12-25T14:23:27.723Z,6.50
2018-12-25T14:28:23.470Z,7.57
2018-12-25T14:33:19.159Z,6.13
2018-12-25T14:38:15.265Z,6.90
2018-12-25T14:43:10.977Z,7.93
2018-12-25T14:48:06.673Z,7.27
2018-12-25T14:53:02.429Z,7.70
2018-12-25T14:57:58.203Z,6.83
2018-12-25T15:02:53.949Z,6.93
2018-12-25T15:07:49.674Z,6.83
2018-12-25T15:12:45.458Z,6.37
2018-12-25T15:17:41.126Z,8.43
2018-12-25T15:22:37.173Z,6.90
2018-12-25T15:27:32.921Z,7.17
2018-12-25T15:32:28.652Z,11.13
2018-12-25T15:37:24.347Z,7.93
2018-12-25T15:42:20.063Z,7.77
2018-12-25T15:47:15.773Z,14.87
2018-12-25T15:52:11.479Z,8.63
2018-12-25T15:57:07.213Z,8.37
2018-12-25T16:02:02.881Z,8.53
2018-12-25T16:06:58.595Z,12.17
2018-12-25T16:11:54.319Z,11.77
2018-12-25T16:16:50.003Z,12.10
2018-12-25T16:21:45.706Z,9.90
2018-12-25T16:26:41.743Z,12.80
2018-12-25T16:31:37.476Z,9.67
2018-12-25T16:36:33.176Z,9.80
2018-12-25T16:41:28.885Z,8.10
2018-12-25T16:46:24.591Z,8.30
2018-12-25T16:51:20.583Z,8.20
2018-12-25T16:56:16.457Z,7.83
2018-12-25T17:01:12.167Z,8.37
2018-12-25T17:06:07.852Z,8.77
2018-12-25T17:11:03.572Z,10.53
2018-12-25T17:15:59.286Z,10.77
2018-12-25T17:20:54.968Z,9.65
2018-12-25T17:25:50.679Z,9.37
2018-12-25T17:30:46.429Z,10.23
2018-12-25T17:35:42.154Z,11.30
2018-12-25T17:40:37.863Z,13.23
2018-12-25T17:45:33.562Z,12.47
2018-12-25T17:50:29.383Z,10.17
2018-12-25T17:55:25.081Z,10.40
2018-12-25T18:00:21.207Z,9.70
2018-12-25T18:05:16.942Z,10.20
2018-12-25T18:10:12.687Z,9.30
2018-12-25T18:15:08.520Z,11.87
2018-12-25T18:20:05.227Z,10.83
2018-12-25T18:25:00.983Z,13.20
2018-12-25T18:29:56.703Z,13.27
2018-12-25T18:34:52.404Z,12.00
2018-12-25T18:39:50.013Z,11.03
2018-12-25T18:44:46.052Z,10.63
2018-12-25T18:49:41.778Z,12.03
2018-12-25T18:54:37.926Z,12.03
2018-12-25T18:59:33.668Z,11.63
2018-12-25T19:04:29.383Z,12.23
2018-12-25T19:09:25.090Z,10.83
2018-12-25T19:14:20.902Z,11.00
2018-12-25T19:19:16.629Z,12.63
2018-12-25T19:24:12.352Z,12.37
2018-12-25T19:29:08.075Z,12.40
2018-12-25T19:34:04.321Z,12.33
2018-12-25T19:39:00.041Z,12.77
2018-12-25T19:43:55.790Z,15.03
2018-12-25T19:48:53.392Z,14.13
2018-12-25T19:53:49.369Z,13.63
2018-12-25T19:58:45.189Z,14.70
2018-12-25T20:14:47.656Z,14.03
2018-12-25T20:25:26.811Z,12.50
2018-12-25T20:30:42.442Z,13.27
2018-12-25T20:35:58.046Z,17.13
2018-12-25T20:46:37.524Z,17.40
2018-12-25T20:57:16.523Z,19.50
2018-12-25T21:02:32.170Z,21.90
2018-12-25T21:13:11.761Z,13.57
2018-12-25T21:18:27.487Z,12.13
2018-12-25T21:23:43.049Z,13.27
2018-12-25T21:28:38.846Z,13.00
2018-12-25T21:33:37.550Z,15.50
2018-12-25T21:38:33.263Z,13.47
2018-12-25T21:43:28.956Z,13.47
2018-12-25T21:48:24.675Z,14.60
2018-12-25T21:53:20.511Z,14.43
2018-12-25T21:58:16.421Z,13.73
2018-12-25T22:03:12.409Z,15.10
2018-12-25T22:08:08.101Z,14.93
2018-12-25T22:13:03.809Z,17.70
2018-12-25T22:17:59.489Z,16.03
2018-12-25T22:22:55.220Z,15.67
2018-12-25T22:27:51.054Z,14.57
2018-12-25T22:32:46.800Z,13.13
2018-12-25T22:37:42.489Z,15.33
2018-12-25T22:42:38.295Z,16.20
2018-12-25T22:47:34.007Z,15.17
2018-12-25T22:52:29.734Z,15.53
2018-12-25T22:57:25.443Z,16.93
2018-12-25T23:02:21.157Z,16.60
2018-12-25T23:07:16.880Z,19.13
2018-12-25T23:12:12.560Z,17.33
2018-12-25T23:17:08.287Z,15.17
2018-12-25T23:22:03.976Z,20.00
2018-12-25T23:26:59.959Z,17.70
2018-12-25T23:31:55.701Z,16.43
2018-12-25T23:36:51.665Z,18.13
2018-12-25T23:41:47.486Z,17.30
2018-12-25T23:46:43.198Z,22.70
2018-12-25T23:51:38.904Z,15.63
2018-12-25T23:56:34.590Z,14.70
